createdAt,value
2022-10-28T00:01:16.139Z,13.40
2022-10-28T00:03:45.058Z,13.30
2022-10-28T00:06:17.822Z,13.40
2022-10-28T00:08:44.794Z,13.30
2022-10-28T00:11:23.311Z,13.30
2022-10-28T00:13:52.284Z,13.40
2022-10-28T00:16:22.664Z,13.30
2022-10-28T00:18:52.365Z,13.30
2022-10-28T00:21:21.219Z,13.30
2022-10-28T00:23:47.824Z,13.30
2022-10-28T00:26:24.595Z,13.20
2022-10-28T00:28:53.829Z,13.00
2022-10-28T00:31:21.881Z,13.10
2022-10-28T00:33:48.896Z,13.20
2022-10-28T00:36:22.013Z,13.20
2022-10-28T00:38:51.296Z,13.20
2022-10-28T00:41:22.676Z,13.20
2022-10-28T00:43:52.287Z,13.20
2022-10-28T00:46:25.174Z,13.20
2022-10-28T00:48:57.332Z,13.20
2022-10-28T00:51:25.399Z,13.20
2022-10-28T00:53:54.317Z,13.20
2022-10-28T00:56:23.018Z,13.20
2022-10-28T00:58:51.560Z,13.20
2022-10-28T01:01:18.360Z,13.20
2022-10-28T01:03:45.012Z,13.20
2022-10-28T01:06:11.711Z,13.20
2022-10-28T01:08:38.367Z,13.20
2022-10-28T01:11:39.884Z,13.20
2022-10-28T01:14:21.905Z,13.20
2022-10-28T01:17:09.257Z,13.20
2022-10-28T01:20:15.907Z,13.20
2022-10-28T01:23:15.067Z,13.20
2022-10-28T01:26:02.781Z,13.20
2022-10-28T01:28:32.176Z,13.20
2022-10-28T01:31:32.536Z,13.20
2022-10-28T01:34:27.235Z,13.10
2022-10-28T01:37:06.206Z,13.10
2022-10-28T01:39:51.453Z,13.10
2022-10-28T01:42:39.547Z,13.10
2022-10-28T01:45:14.656Z,13.20
2022-10-28T01:48:02.847Z,13.20
2022-10-28T01:50:33.284Z,13.10
2022-10-28T01:53:06.358Z,13.10
2022-10-28T01:55:40.215Z,13.10
2022-10-28T01:58:09.137Z,13.10
2022-10-28T02:00:37.515Z,13.10
2022-10-28T02:03:08.772Z,13.20
2022-10-28T02:05:39.272Z,13.10
2022-10-28T02:08:18.078Z,13.10
2022-10-28T02:11:06.059Z,13.20
2022-10-28T02:13:39.383Z,13.20
2022-10-28T02:16:15.080Z,13.30
2022-10-28T02:18:53.117Z,13.30
2022-10-28T02:21:47.141Z,13.30
2022-10-28T02:24:28.507Z,13.30
2022-10-28T02:27:33.423Z,13.20
2022-10-28T02:30:07.798Z,13.20
2022-10-28T02:32:40.290Z,13.20
2022-10-28T02:35:15.351Z,13.20
2022-10-28T02:37:43.911Z,13.20
2022-10-28T02:40:16.419Z,13.20
2022-10-28T02:42:48.784Z,13.20
2022-10-28T02:45:25.279Z,13.10
2022-10-28T02:47:56.678Z,13.20
2022-10-28T02:50:31.887Z,13.20
2022-10-28T02:52:59.016Z,13.30
2022-10-28T02:55:34.264Z,13.20
2022-10-28T02:58:00.955Z,13.20
2022-10-28T03:00:27.558Z,13.20
2022-10-28T03:02:54.194Z,13.20
2022-10-28T03:05:20.796Z,13.20
2022-10-28T03:07:47.406Z,13.20
2022-10-28T03:10:14.065Z,13.30
2022-10-28T03:12:40.591Z,13.30
2022-10-28T03:15:07.870Z,13.30
2022-10-28T03:17:34.457Z,13.30
2022-10-28T03:20:01.084Z,13.30
2022-10-28T03:22:27.709Z,13.30
2022-10-28T03:24:54.294Z,13.40
2022-10-28T03:27:20.834Z,13.40
2022-10-28T03:29:47.350Z,13.40
2022-10-28T03:32:14.149Z,13.40
2022-10-28T03:34:40.949Z,13.40
2022-10-28T03:37:07.472Z,13.40
2022-10-28T03:39:34.097Z,13.40
2022-10-28T03:42:00.800Z,13.40
2022-10-28T03:44:27.527Z,13.40
2022-10-28T03:46:54.068Z,13.30
2022-10-28T03:49:20.744Z,13.30
2022-10-28T03:51:47.539Z,13.30
2022-10-28T03:54:14.076Z,13.40
2022-10-28T03:56:40.788Z,13.40
2022-10-28T03:59:09.716Z,13.40
2022-10-28T04:01:36.365Z,13.40
2022-10-28T04:04:03.291Z,13.40
2022-10-28T04:06:30.285Z,13.40
2022-10-28T04:08:57.013Z,13.40
2022-10-28T04:11:23.804Z,13.50
2022-10-28T04:13:50.568Z,13.50
2022-10-28T04:16:17.263Z,13.50
2022-10-28T04:18:43.995Z,13.50
2022-10-28T04:21:11.889Z,13.50
2022-10-28T04:23:38.497Z,13.50
2022-10-28T04:26:05.599Z,13.60
2022-10-28T04:28:32.904Z,13.60
2022-10-28T04:30:59.704Z,13.60
2022-10-28T04:33:26.265Z,13.60
2022-10-28T04:35:52.969Z,13.60
2022-10-28T04:38:19.679Z,13.60
2022-10-28T04:40:50.092Z,13.60
2022-10-28T04:43:16.838Z,13.70
2022-10-28T04:45:43.559Z,13.60
2022-10-28T04:48:12.312Z,13.60
2022-10-28T04:50:39.473Z,13.60
2022-10-28T04:53:06.258Z,13.60
2022-10-28T04:55:33.902Z,13.50
2022-10-28T04:58:01.381Z,13.60
2022-10-28T05:00:29.964Z,13.50
2022-10-28T05:02:57.707Z,13.50
2022-10-28T05:05:25.708Z,13.50
2022-10-28T05:07:52.595Z,13.50
2022-10-28T05:10:19.380Z,13.50
2022-10-28T05:12:46.340Z,13.50
2022-10-28T05:15:14.425Z,13.50
2022-10-28T05:17:43.439Z,13.40
2022-10-28T05:20:11.768Z,13.50
2022-10-28T05:22:38.544Z,13.50
2022-10-28T05:25:05.811Z,13.50
2022-10-28T05:27:32.566Z,13.50
2022-10-28T05:29:59.386Z,13.50
2022-10-28T05:32:26.035Z,13.50
2022-10-28T05:34:52.810Z,13.50
2022-10-28T05:37:19.481Z,13.50
2022-10-28T05:39:46.111Z,13.50
2022-10-28T05:42:12.653Z,13.50
2022-10-28T05:44:39.563Z,13.50
2022-10-28T05:47:06.318Z,13.50
2022-10-28T05:49:33.099Z,13.60
2022-10-28T05:51:59.705Z,13.50
2022-10-28T05:54:26.556Z,13.50
2022-10-28T05:56:53.196Z,13.50
2022-10-28T05:59:21.102Z,13.40
2022-10-28T06:01:47.852Z,13.40
2022-10-28T06:04:14.668Z,13.50
2022-10-28T06:06:41.346Z,13.40
2022-10-28T06:09:07.934Z,13.40
2022-10-28T06:11:33.739Z,13.30
2022-10-28T06:14:00.633Z,13.30
2022-10-28T06:16:27.332Z,13.30
2022-10-28T06:18:54.081Z,13.30
2022-10-28T06:21:20.770Z,13.20
2022-10-28T06:23:47.291Z,13.30
2022-10-28T06:26:13.821Z,13.30
2022-10-28T06:28:40.357Z,13.30
2022-10-28T06:31:07.716Z,13.30
2022-10-28T06:33:34.435Z,13.30
2022-10-28T06:36:01.157Z,13.30
2022-10-28T06:38:28.256Z,13.30
2022-10-28T06:40:58.029Z,13.30
2022-10-28T06:43:24.855Z,13.30
2022-10-28T06:45:55.177Z,13.40
2022-10-28T06:48:24.020Z,13.40
2022-10-28T06:50:50.642Z,13.40
2022-10-28T06:53:17.262Z,13.40
2022-10-28T06:55:48.580Z,13.50
2022-10-28T06:58:15.356Z,13.50
2022-10-28T07:00:42.060Z,13.60
2022-10-28T07:03:10.604Z,13.70
2022-10-28T07:05:37.562Z,13.70
2022-10-28T07:08:04.814Z,13.80
2022-10-28T07:10:31.637Z,13.80
2022-10-28T07:12:58.521Z,13.90
2022-10-28T07:15:25.175Z,14.00
2022-10-28T07:17:53.720Z,14.00
2022-10-28T07:20:20.699Z,14.10
2022-10-28T07:22:47.251Z,14.10
2022-10-28T07:25:13.922Z,14.20
2022-10-28T07:27:40.458Z,14.20
2022-10-28T07:30:07.704Z,14.20
2022-10-28T07:32:34.378Z,14.20
2022-10-28T07:35:01.016Z,14.30
2022-10-28T07:37:29.557Z,14.40
2022-10-28T07:39:56.095Z,14.40
2022-10-28T07:42:22.841Z,14.40
2022-10-28T07:44:49.498Z,14.40
2022-10-28T07:47:17.528Z,14.40
2022-10-28T07:49:44.089Z,14.40
2022-10-28T07:52:10.665Z,14.40
2022-10-28T07:54:37.256Z,14.50
2022-10-28T07:57:04.007Z,14.50
2022-10-28T07:59:30.685Z,14.60
2022-10-28T08:01:57.457Z,14.60
2022-10-28T08:04:24.182Z,14.70
2022-10-28T08:06:50.896Z,14.70
2022-10-28T08:09:17.444Z,14.80
2022-10-28T08:11:43.957Z,14.90
2022-10-28T08:14:10.553Z,14.90
2022-10-28T08:16:37.173Z,15.00
2022-10-28T08:19:07.699Z,15.00
2022-10-28T08:21:34.464Z,15.10
2022-10-28T08:24:00.973Z,15.20
2022-10-28T08:26:27.534Z,15.30
2022-10-28T08:28:54.084Z,15.40
2022-10-28T08:31:20.615Z,15.50
2022-10-28T08:33:47.421Z,15.60
2022-10-28T08:36:16.571Z,15.70
2022-10-28T08:38:45.715Z,15.90
2022-10-28T08:41:28.088Z,16.10
2022-10-28T08:44:07.707Z,16.20
2022-10-28T08:46:48.147Z,16.30
2022-10-28T08:49:17.919Z,16.40
2022-10-28T08:51:47.990Z,16.40
2022-10-28T08:54:24.248Z,16.50
2022-10-28T08:56:54.867Z,16.50
2022-10-28T08:59:31.042Z,16.60
2022-10-28T09:02:00.938Z,16.60
2022-10-28T09:04:40.583Z,16.70
2022-10-28T09:07:18.585Z,16.70
2022-10-28T09:09:46.441Z,16.70
2022-10-28T09:12:23.107Z,16.70
2022-10-28T09:15:14.187Z,16.80
2022-10-28T09:18:04.188Z,16.90
2022-10-28T09:20:50.230Z,16.90
2022-10-28T09:23:33.480Z,17.00
2022-10-28T09:26:28.275Z,17.00
2022-10-28T09:29:13.635Z,17.10
2022-10-28T09:31:47.908Z,17.20
2022-10-28T09:34:30.033Z,17.20
2022-10-28T09:37:32.330Z,17.30
2022-10-28T09:40:13.548Z,17.40
2022-10-28T09:43:01.086Z,17.70
2022-10-28T09:45:31.891Z,17.80
2022-10-28T09:48:14.410Z,17.90
2022-10-28T09:50:41.172Z,18.00
2022-10-28T09:53:35.803Z,18.20
2022-10-28T09:56:03.684Z,18.20
2022-10-28T09:58:32.581Z,18.10
2022-10-28T10:00:59.349Z,18.20
2022-10-28T10:03:25.932Z,18.20
2022-10-28T10:05:56.788Z,18.30
2022-10-28T10:08:23.893Z,18.40
2022-10-28T10:10:52.866Z,18.50
2022-10-28T10:13:25.365Z,18.50
2022-10-28T10:15:56.648Z,18.50
2022-10-28T10:18:26.973Z,18.50
2022-10-28T10:20:58.367Z,18.70
2022-10-28T10:23:36.890Z,18.70
2022-10-28T10:26:11.282Z,18.80
2022-10-28T10:28:48.323Z,18.90
2022-10-28T10:31:29.647Z,19.00
2022-10-28T10:33:58.436Z,19.00
2022-10-28T10:36:28.919Z,19.10
2022-10-28T10:38:57.319Z,19.10
2022-10-28T10:41:44.269Z,19.30
2022-10-28T10:44:23.128Z,19.40
2022-10-28T10:47:05.908Z,19.50
2022-10-28T10:49:34.308Z,19.40
2022-10-28T10:52:16.037Z,19.50
2022-10-28T10:54:57.159Z,19.50
2022-10-28T10:57:25.515Z,19.60
2022-10-28T10:59:54.497Z,19.70
2022-10-28T11:02:39.684Z,19.90
2022-10-28T11:05:07.408Z,20.10
2022-10-28T11:07:34.610Z,20.10
2022-10-28T11:10:02.134Z,20.10
2022-10-28T11:12:32.057Z,20.10
2022-10-28T11:15:03.605Z,20.10
2022-10-28T11:17:34.900Z,20.20
2022-10-28T11:20:23.459Z,20.30
2022-10-28T11:23:12.084Z,20.50
2022-10-28T11:25:46.862Z,20.70
2022-10-28T11:28:25.697Z,20.90
2022-10-28T11:31:25.476Z,21.00
2022-10-28T11:34:21.804Z,21.30
2022-10-28T11:37:13.361Z,22.00
2022-10-28T11:40:07.480Z,22.20
2022-10-28T11:42:45.520Z,22.30
2022-10-28T11:45:24.180Z,22.50
2022-10-28T11:48:24.255Z,22.60
2022-10-28T11:51:13.894Z,22.40
2022-10-28T11:54:08.249Z,22.30
2022-10-28T11:56:39.536Z,22.20
2022-10-28T11:59:24.325Z,22.20
2022-10-28T12:02:14.277Z,22.20
2022-10-28T12:04:58.628Z,22.40
2022-10-28T12:07:28.217Z,22.40
2022-10-28T12:10:07.682Z,22.60
2022-10-28T12:12:53.937Z,22.60
2022-10-28T12:15:48.561Z,22.70
2022-10-28T12:18:29.689Z,22.60
2022-10-28T12:21:14.351Z,22.40
2022-10-28T12:23:42.740Z,22.40
2022-10-28T12:26:14.734Z,22.50
2022-10-28T12:28:45.728Z,22.50
2022-10-28T12:31:30.219Z,22.70
2022-10-28T12:34:00.818Z,22.90
2022-10-28T12:36:43.267Z,23.20
2022-10-28T12:39:24.646Z,23.30
2022-10-28T12:42:15.622Z,23.30
2022-10-28T12:44:43.089Z,23.50
2022-10-28T12:47:25.496Z,23.40
2022-10-28T12:50:10.666Z,23.50
2022-10-28T12:53:01.845Z,23.50
2022-10-28T12:55:48.298Z,23.60
2022-10-28T12:58:32.248Z,23.70
2022-10-28T13:01:14.194Z,23.80
2022-10-28T13:03:41.143Z,23.90
2022-10-28T13:06:19.687Z,24.00
2022-10-28T13:09:05.273Z,24.10
2022-10-28T13:12:00.098Z,24.10
2022-10-28T13:15:13.407Z,24.20
2022-10-28T13:18:05.477Z,24.20
2022-10-28T13:21:02.398Z,24.10
2022-10-28T13:23:42.435Z,24.20
2022-10-28T13:26:26.865Z,24.20
2022-10-28T13:28:58.854Z,24.00
2022-10-28T13:31:41.729Z,23.90
2022-10-28T13:34:11.214Z,24.00
2022-10-28T13:36:42.725Z,24.00
2022-10-28T13:39:29.572Z,23.80
2022-10-28T13:42:23.285Z,23.60
2022-10-28T13:44:49.882Z,23.50
2022-10-28T13:47:17.464Z,23.50
2022-10-28T13:50:06.175Z,23.50
2022-10-28T13:52:34.186Z,23.80
2022-10-28T13:55:20.285Z,23.90
2022-10-28T13:57:50.002Z,23.90
2022-10-28T14:00:20.058Z,23.90
2022-10-28T14:02:49.247Z,23.80
2022-10-28T14:05:19.307Z,23.70
2022-10-28T14:07:59.075Z,23.60
2022-10-28T14:10:50.477Z,23.50
2022-10-28T14:13:19.826Z,23.30
2022-10-28T14:15:50.553Z,23.10
2022-10-28T14:18:46.570Z,22.90
2022-10-28T14:21:04.244Z,22.90
2022-10-28T14:23:33.643Z,22.80
2022-10-28T14:26:04.999Z,22.80
2022-10-28T14:28:31.803Z,22.80
2022-10-28T14:31:10.705Z,22.90
2022-10-28T14:33:43.399Z,23.00
2022-10-28T14:36:46.098Z,22.90
2022-10-28T14:39:34.373Z,23.00
2022-10-28T14:42:39.841Z,22.80
2022-10-28T14:45:33.479Z,22.80
2022-10-28T14:48:21.207Z,22.80
2022-10-28T14:50:51.404Z,22.70
2022-10-28T14:53:24.186Z,22.50
2022-10-28T14:55:58.583Z,22.50
2022-10-28T14:58:30.530Z,22.40
2022-10-28T15:01:18.348Z,22.20
2022-10-28T15:03:52.250Z,22.00
2022-10-28T15:06:34.055Z,21.90
2022-10-28T15:09:15.845Z,21.90
2022-10-28T15:11:46.370Z,21.90
2022-10-28T15:14:35.211Z,21.60
2022-10-28T15:17:18.673Z,21.60
2022-10-28T15:19:47.514Z,21.50
2022-10-28T15:22:19.163Z,21.40
2022-10-28T15:24:59.247Z,21.30
2022-10-28T15:27:29.444Z,21.30
2022-10-28T15:29:56.569Z,21.30
2022-10-28T15:32:23.060Z,21.20
2022-10-28T15:34:49.718Z,21.10
2022-10-28T15:37:26.112Z,21.00
2022-10-28T15:40:11.451Z,20.90
2022-10-28T15:42:44.546Z,20.80
2022-10-28T15:45:18.202Z,20.80
2022-10-28T15:47:46.238Z,20.70
2022-10-28T15:50:15.659Z,20.60
2022-10-28T15:52:50.172Z,20.50
2022-10-28T15:55:19.691Z,20.50
2022-10-28T15:57:51.622Z,20.40
2022-10-28T16:00:20.848Z,20.30
2022-10-28T16:02:55.728Z,20.20
2022-10-28T16:05:34.790Z,20.20
2022-10-28T16:08:07.862Z,20.10
2022-10-28T16:10:42.626Z,20.00
2022-10-28T16:13:27.385Z,19.90
2022-10-28T16:16:00.383Z,19.90
2022-10-28T16:18:29.654Z,19.80
2022-10-28T16:20:58.480Z,19.70
2022-10-28T16:23:32.987Z,19.70
2022-10-28T16:25:59.558Z,19.60
2022-10-28T16:28:27.571Z,19.50
2022-10-28T16:30:56.150Z,19.40
2022-10-28T16:33:28.528Z,19.40
2022-10-28T16:35:55.744Z,19.30
2022-10-28T16:38:22.488Z,19.20
2022-10-28T16:40:52.004Z,19.10
2022-10-28T16:43:22.626Z,19.00
2022-10-28T16:45:51.481Z,19.00
2022-10-28T16:48:19.830Z,18.90
2022-10-28T16:50:52.247Z,18.90
2022-10-28T16:53:19.508Z,18.80
2022-10-28T16:55:46.188Z,18.80
2022-10-28T16:58:13.232Z,18.80
2022-10-28T17:00:40.498Z,18.70
2022-10-28T17:03:07.743Z,18.60
2022-10-28T17:05:34.483Z,18.50
2022-10-28T17:08:04.545Z,18.40
2022-10-28T17:10:36.814Z,18.30
2022-10-28T17:13:03.415Z,18.30
2022-10-28T17:15:29.977Z,18.20
2022-10-28T17:17:57.848Z,18.20
2022-10-28T17:20:24.394Z,18.10
2022-10-28T17:22:50.919Z,18.00
2022-10-28T17:25:17.974Z,17.90
2022-10-28T17:27:48.698Z,17.90
2022-10-28T17:30:17.372Z,17.90
2022-10-28T17:32:45.318Z,17.80
2022-10-28T17:35:12.047Z,17.70
2022-10-28T17:37:38.625Z,17.70
2022-10-28T17:40:06.199Z,17.70
2022-10-28T17:42:32.745Z,17.70
2022-10-28T17:44:59.608Z,17.60
2022-10-28T17:47:26.255Z,17.50
2022-10-28T17:49:52.793Z,17.40
2022-10-28T17:52:27.837Z,17.40
2022-10-28T17:54:54.505Z,17.40
2022-10-28T17:57:21.253Z,17.30
2022-10-28T17:59:47.951Z,17.20
2022-10-28T18:02:14.965Z,17.20
2022-10-28T18:04:42.002Z,17.30
2022-10-28T18:07:08.658Z,17.20
2022-10-28T18:09:35.353Z,17.20
2022-10-28T18:12:02.546Z,17.10
2022-10-28T18:14:29.954Z,17.10
2022-10-28T18:16:57.078Z,17.20
2022-10-28T18:19:23.670Z,17.20
2022-10-28T18:21:50.370Z,17.10
2022-10-28T18:24:18.599Z,17.00
2022-10-28T18:26:47.250Z,17.00
2022-10-28T18:29:13.954Z,16.80
2022-10-28T18:31:43.709Z,16.80
2022-10-28T18:34:10.770Z,16.80
2022-10-28T18:36:37.607Z,16.80
2022-10-28T18:39:06.797Z,16.80
2022-10-28T18:41:35.999Z,16.70
2022-10-28T18:44:04.519Z,16.80
2022-10-28T18:46:35.155Z,16.70
2022-10-28T18:49:02.454Z,16.60
2022-10-28T18:51:29.481Z,16.50
2022-10-28T18:53:56.843Z,16.40
2022-10-28T18:56:25.944Z,16.40
2022-10-28T18:58:52.624Z,16.30
2022-10-28T19:01:25.151Z,16.30
2022-10-28T19:03:57.075Z,16.40
2022-10-28T19:06:25.951Z,16.50
2022-10-28T19:08:57.216Z,16.40
2022-10-28T19:11:30.014Z,16.40
2022-10-28T19:14:02.517Z,16.30
2022-10-28T19:16:31.012Z,16.20
2022-10-28T19:18:59.109Z,16.20
2022-10-28T19:21:27.137Z,16.20
2022-10-28T19:23:54.228Z,16.10
2022-10-28T19:26:22.928Z,16.10
2022-10-28T19:28:50.338Z,16.10
2022-10-28T19:31:22.982Z,16.20
2022-10-28T19:33:49.602Z,16.20
2022-10-28T19:36:20.613Z,16.20
2022-10-28T19:38:48.786Z,16.30
2022-10-28T19:41:18.100Z,16.30
2022-10-28T19:43:45.101Z,16.30
2022-10-28T19:46:17.661Z,16.30
2022-10-28T19:48:49.715Z,16.30
2022-10-28T19:51:18.813Z,16.20
2022-10-28T19:53:56.511Z,16.30
2022-10-28T19:56:23.430Z,16.20
2022-10-28T19:58:55.578Z,16.30
2022-10-28T20:01:23.560Z,16.30
2022-10-28T20:03:51.493Z,16.30
2022-10-28T20:06:20.428Z,16.20
2022-10-28T20:08:48.012Z,16.30
2022-10-28T20:11:20.038Z,16.30
2022-10-28T20:13:57.466Z,16.30
2022-10-28T20:16:24.990Z,16.30
2022-10-28T20:18:52.730Z,16.20
2022-10-28T20:21:21.727Z,16.20
2022-10-28T20:26:18.950Z,16.30
2022-10-28T20:28:45.922Z,16.30
2022-10-28T20:31:16.076Z,16.20
2022-10-28T20:33:44.325Z,16.20
2022-10-28T20:36:31.250Z,16.20
2022-10-28T20:39:00.389Z,16.20
2022-10-28T20:41:30.175Z,16.20
2022-10-28T20:43:57.111Z,16.10
2022-10-28T20:46:24.822Z,16.00
2022-10-28T20:48:53.880Z,16.00
2022-10-28T20:51:21.787Z,16.00
2022-10-28T20:53:48.523Z,16.00
2022-10-28T20:56:17.289Z,15.90
2022-10-28T20:58:44.145Z,15.90
2022-10-28T21:01:16.979Z,15.90
2022-10-28T21:03:44.313Z,15.90
2022-10-28T21:06:11.686Z,15.80
2022-10-28T21:08:38.586Z,15.70
2022-10-28T21:11:07.282Z,15.70
2022-10-28T21:13:34.508Z,15.60
2022-10-28T21:16:06.099Z,15.60
2022-10-28T21:18:33.127Z,15.60
2022-10-28T21:21:00.356Z,15.50
2022-10-28T21:23:27.960Z,15.50
2022-10-28T21:26:00.315Z,15.50
2022-10-28T21:28:28.622Z,15.50
2022-10-28T21:31:05.192Z,15.50
2022-10-28T21:33:33.448Z,15.40
2022-10-28T21:36:02.499Z,15.40
2022-10-28T21:38:29.974Z,15.40
2022-10-28T21:41:00.990Z,15.40
2022-10-28T21:43:32.845Z,15.30
2022-10-28T21:45:59.686Z,15.20
2022-10-28T21:48:29.147Z,15.20
2022-10-28T21:50:57.670Z,15.20
2022-10-28T21:53:25.355Z,15.20
2022-10-28T21:55:53.113Z,15.10
2022-10-28T21:58:21.642Z,15.10
2022-10-28T22:00:48.355Z,15.10
2022-10-28T22:03:15.412Z,15.10
2022-10-28T22:05:49.986Z,15.10
2022-10-28T22:08:17.680Z,15.10
2022-10-28T22:10:44.302Z,15.10
2022-10-28T22:13:10.890Z,15.00
2022-10-28T22:15:37.544Z,15.00
2022-10-28T22:18:04.194Z,14.90
2022-10-28T22:20:30.751Z,14.80
2022-10-28T22:22:57.535Z,14.90
2022-10-28T22:25:24.325Z,14.80
2022-10-28T22:27:50.967Z,14.70
2022-10-28T22:30:17.603Z,14.70
2022-10-28T22:32:44.186Z,14.70
2022-10-28T22:35:11.788Z,14.60
2022-10-28T22:37:38.323Z,14.60
2022-10-28T22:40:05.260Z,14.50
2022-10-28T22:42:31.858Z,14.50
2022-10-28T22:44:58.505Z,14.60
2022-10-28T22:47:25.189Z,14.50
2022-10-28T22:49:51.781Z,14.50
2022-10-28T22:52:18.374Z,14.40
2022-10-28T22:54:44.892Z,14.40
2022-10-28T22:57:11.468Z,14.30
2022-10-28T22:59:37.982Z,14.40
2022-10-28T23:02:04.693Z,14.30
2022-10-28T23:04:31.337Z,14.30
2022-10-28T23:06:57.959Z,14.30
2022-10-28T23:09:24.557Z,14.40
2022-10-28T23:11:51.159Z,14.30
2022-10-28T23:14:17.814Z,14.30
2022-10-28T23:16:44.347Z,14.40
2022-10-28T23:19:10.870Z,14.50
2022-10-28T23:21:37.419Z,14.40
2022-10-28T23:24:04.178Z,14.40
2022-10-28T23:26:30.806Z,14.40
2022-10-28T23:28:59.418Z,14.40
2022-10-28T23:31:26.857Z,14.50
2022-10-28T23:33:54.836Z,14.40
2022-10-28T23:36:21.778Z,14.30
2022-10-28T23:38:48.460Z,14.40
2022-10-28T23:41:18.435Z,14.30
2022-10-28T23:43:46.083Z,14.20
2022-10-28T23:46:12.683Z,14.20
2022-10-28T23:48:39.377Z,14.20
2022-10-28T23:51:06.381Z,14.10
2022-10-28T23:53:32.965Z,14.00
2022-10-28T23:55:59.557Z,14.00
2022-10-28T23:58:26.419Z,14.10
